SUY weather

Suntar Airport
Suntar, Sakha (Yakutia) Republic, Russia

Public forecast

Using degrees Celsius for public forecast. Weather courtesy of forecast.io.

Closest aviation weather report (METAR) to Suntar Airport

Closest report is Mirny Airport, 102.3 nm (189.5 km) WNW. Retrieved 2019/12/14 07:30 UTC (0 seconds ago):

UERR 140730Z 25004G09MPS 9999 -SN DRSN FEW009 M10/M12 Q0994 R25/390332 NOSIG RMK QFE715

Closest aviation forecast (TAF) to Suntar Airport

Closest forecast is Mirny Airport, 102.3 nm (189.5 km) WNW. Retrieved 2019/12/14 09:21 UTC (0 seconds ago):

TAF UERR 140800Z 1409/1509 26006G12MPS 9999 DRSN SCT010 BKN023CB TEMPO 1409/1412 1500 SHSN BKN007 OVC017CB